Minneapolis, Minnesota
Traffic Map
Current Weather Conditions
Minneapolis, Minnesota
Overcast Haze
Overcast
-1°
Feels Like: -4°
Wind Chill: -4° Ceiling: 400
Heat Index: -1° Visibility: 2mi
Dew Point: -2° Wind: 7mph
Humidity: 92% Direction: 350° (N)
Pressure: 29.84in Gusts: 0mph
Raw Report DataKMSP 290400Z 35006KT 2SM BR OVC004 M01/M02 A2984 RMK AO2 T10061017
Traffic Incident Summary
Active as of:
Severity:
Category:
InformationThere was an issue retrieving the traffic information for this location. Please try a different location or try again shortly.
Advertisements
Track Severe Weather on mobile